createdAt,value
2023-04-16T00:00:41.790Z,10.50
2023-04-16T00:01:43.493Z,10.50
2023-04-16T00:02:45.537Z,10.50
2023-04-16T00:03:47.978Z,10.50
2023-04-16T00:04:50.196Z,10.50
2023-04-16T00:05:55.787Z,10.50
2023-04-16T00:06:57.679Z,10.50
2023-04-16T00:07:59.382Z,10.40
2023-04-16T00:09:01.266Z,10.50
2023-04-16T00:10:02.970Z,10.40
2023-04-16T00:11:05.980Z,10.50
2023-04-16T00:12:07.644Z,10.50
2023-04-16T00:13:09.315Z,10.40
2023-04-16T00:14:11.407Z,10.40
2023-04-16T00:15:13.205Z,10.40
2023-04-16T00:16:15.293Z,10.40
2023-04-16T00:17:21.300Z,10.40
2023-04-16T00:18:24.473Z,10.40
2023-04-16T00:19:26.160Z,10.40
2023-04-16T00:20:27.931Z,10.40
2023-04-16T00:21:30.388Z,10.40
2023-04-16T00:22:32.100Z,10.40
2023-04-16T00:23:33.922Z,10.40
2023-04-16T00:24:35.899Z,10.40
2023-04-16T00:25:37.884Z,10.40
2023-04-16T00:26:40.985Z,10.40
2023-04-16T00:27:42.988Z,10.50
2023-04-16T00:28:45.076Z,10.50
2023-04-16T00:29:46.772Z,10.50
2023-04-16T00:30:48.541Z,10.50
2023-04-16T00:31:50.698Z,10.50
2023-04-16T00:32:52.688Z,10.50
2023-04-16T00:33:54.548Z,10.50
2023-04-16T00:34:56.248Z,10.50
2023-04-16T00:35:58.122Z,10.50
2023-04-16T00:37:00.199Z,10.50
2023-04-16T00:38:01.982Z,10.50
2023-04-16T00:39:04.262Z,10.50
2023-04-16T00:40:06.833Z,10.50
2023-04-16T00:41:08.648Z,10.50
2023-04-16T00:42:10.658Z,10.50
2023-04-16T00:43:12.406Z,10.50
2023-04-16T00:44:14.076Z,10.50
2023-04-16T00:45:16.003Z,10.50
2023-04-16T00:46:19.954Z,10.50
2023-04-16T00:47:22.956Z,10.60
2023-04-16T00:48:27.780Z,10.50
2023-04-16T00:49:31.636Z,10.60
2023-04-16T00:50:34.644Z,10.60
2023-04-16T00:51:36.811Z,10.60
2023-04-16T00:52:39.861Z,10.60
2023-04-16T00:53:41.877Z,10.60
2023-04-16T00:54:43.770Z,10.60
2023-04-16T00:55:45.969Z,10.60
2023-04-16T00:56:47.972Z,10.60
2023-04-16T00:57:49.672Z,10.70
2023-04-16T00:58:51.457Z,10.70
2023-04-16T00:59:54.118Z,10.60
2023-04-16T01:00:57.076Z,10.60
2023-04-16T01:01:59.033Z,10.60
2023-04-16T01:03:00.955Z,10.60
2023-04-16T01:04:03.480Z,10.60
2023-04-16T01:05:06.204Z,10.60
2023-04-16T01:06:08.003Z,10.60
2023-04-16T01:07:11.476Z,10.60
2023-04-16T01:08:18.561Z,10.60
2023-04-16T01:09:20.608Z,10.60
2023-04-16T01:10:22.366Z,10.60
2023-04-16T01:11:24.416Z,10.70
2023-04-16T01:12:27.506Z,10.70
2023-04-16T01:13:29.575Z,10.70
2023-04-16T01:14:36.246Z,10.60
2023-04-16T01:15:38.261Z,10.60
2023-04-16T01:16:45.996Z,10.60
2023-04-16T01:17:48.713Z,10.60
2023-04-16T01:18:50.790Z,10.60
2023-04-16T01:19:52.585Z,10.50
2023-04-16T01:20:54.596Z,10.60
2023-04-16T01:21:56.336Z,10.50
2023-04-16T01:22:58.310Z,10.60
2023-04-16T01:24:04.693Z,10.50
2023-04-16T01:25:06.918Z,10.50
2023-04-16T01:26:08.796Z,10.50
2023-04-16T01:27:10.832Z,10.50
2023-04-16T01:28:12.732Z,10.60
2023-04-16T01:29:14.810Z,10.50
2023-04-16T01:30:16.638Z,10.50
2023-04-16T01:31:18.531Z,10.50
2023-04-16T01:32:21.008Z,10.60
2023-04-16T01:33:23.176Z,10.60
2023-04-16T01:34:25.427Z,10.60
2023-04-16T01:35:27.292Z,10.70
2023-04-16T01:36:29.293Z,10.60
2023-04-16T01:37:32.045Z,10.60
2023-04-16T01:38:33.881Z,10.70
2023-04-16T01:39:35.771Z,10.60
2023-04-16T01:40:38.131Z,10.60
2023-04-16T01:41:40.156Z,10.60
2023-04-16T01:42:42.109Z,10.60
2023-04-16T01:43:43.852Z,10.60
2023-04-16T01:44:47.620Z,10.60
2023-04-16T01:45:49.775Z,10.60
2023-04-16T01:46:51.592Z,10.60
2023-04-16T01:47:53.632Z,10.50
2023-04-16T01:48:58.546Z,10.40
2023-04-16T01:50:02.393Z,10.40
2023-04-16T01:51:05.412Z,10.60
2023-04-16T01:52:08.801Z,10.50
2023-04-16T01:53:10.877Z,10.50
2023-04-16T01:54:12.729Z,10.40
2023-04-16T01:55:14.796Z,10.40
2023-04-16T01:56:17.070Z,10.40
2023-04-16T01:57:18.964Z,10.30
2023-04-16T01:58:20.971Z,10.40
2023-04-16T01:59:22.908Z,10.30
2023-04-16T02:00:24.798Z,10.30
2023-04-16T02:01:26.665Z,10.30
2023-04-16T02:02:29.333Z,10.40
2023-04-16T02:03:31.875Z,10.30
2023-04-16T02:04:33.775Z,10.20
2023-04-16T02:05:35.997Z,10.40
2023-04-16T02:06:37.724Z,10.40
2023-04-16T02:07:39.470Z,10.40
2023-04-16T02:08:42.019Z,10.40
2023-04-16T02:09:44.579Z,10.50
2023-04-16T02:10:48.064Z,10.50
2023-04-16T02:11:50.198Z,10.50
2023-04-16T02:12:52.164Z,10.50
2023-04-16T02:13:54.248Z,10.50
2023-04-16T02:14:56.635Z,10.60
2023-04-16T02:15:58.684Z,10.60
2023-04-16T02:17:01.067Z,10.60
2023-04-16T02:18:03.619Z,10.60
2023-04-16T02:19:05.678Z,10.60
2023-04-16T02:20:09.532Z,10.60
2023-04-16T02:21:12.111Z,10.60
2023-04-16T02:22:14.245Z,10.60
2023-04-16T02:23:20.747Z,10.60
2023-04-16T02:24:22.830Z,10.70
2023-04-16T02:25:24.622Z,10.70
2023-04-16T02:26:26.946Z,10.60
2023-04-16T02:27:28.993Z,10.60
2023-04-16T02:28:32.037Z,10.50
2023-04-16T02:29:34.046Z,10.50
2023-04-16T02:30:39.944Z,10.50
2023-04-16T02:31:44.337Z,10.50
2023-04-16T02:32:47.575Z,10.50
2023-04-16T02:33:49.452Z,10.50
2023-04-16T02:34:51.245Z,10.50
2023-04-16T02:35:54.286Z,10.40
2023-04-16T02:36:58.351Z,10.40
2023-04-16T02:38:00.252Z,10.40
2023-04-16T02:39:02.114Z,10.40
2023-04-16T02:40:04.320Z,10.60
2023-04-16T02:41:06.087Z,10.40
2023-04-16T02:42:07.888Z,10.40
2023-04-16T02:43:10.093Z,10.40
2023-04-16T02:44:13.403Z,10.50
2023-04-16T02:45:17.009Z,10.50
2023-04-16T02:46:18.826Z,10.50
2023-04-16T02:47:21.161Z,10.50
2023-04-16T02:48:24.099Z,10.40
2023-04-16T02:49:25.941Z,10.50
2023-04-16T02:50:27.717Z,10.50
2023-04-16T02:51:31.110Z,10.50
2023-04-16T02:52:33.668Z,10.50
2023-04-16T02:53:35.651Z,10.50
2023-04-16T02:54:37.408Z,10.50
2023-04-16T02:55:39.470Z,10.50
2023-04-16T02:56:41.315Z,10.50
2023-04-16T02:57:43.337Z,10.60
2023-04-16T02:58:45.219Z,10.60
2023-04-16T02:59:46.924Z,10.60
2023-04-16T03:00:48.827Z,10.60
2023-04-16T03:01:51.052Z,10.60
2023-04-16T03:02:52.998Z,10.60
2023-04-16T03:03:54.927Z,10.60
2023-04-16T03:04:58.063Z,10.60
2023-04-16T03:05:59.775Z,10.60
2023-04-16T03:07:01.946Z,10.60
2023-04-16T03:08:04.521Z,10.60
2023-04-16T03:09:06.289Z,10.60
2023-04-16T03:10:09.365Z,10.60
2023-04-16T03:11:11.682Z,10.60
2023-04-16T03:12:13.983Z,10.70
2023-04-16T03:13:15.791Z,10.70
2023-04-16T03:14:18.068Z,10.70
2023-04-16T03:15:19.864Z,10.70
2023-04-16T03:16:21.868Z,10.70
2023-04-16T03:17:24.043Z,10.70
2023-04-16T03:18:26.504Z,10.70
2023-04-16T03:19:28.578Z,10.60
2023-04-16T03:20:30.382Z,10.60
2023-04-16T03:21:32.498Z,10.70
2023-04-16T03:22:34.497Z,10.60
2023-04-16T03:23:36.855Z,10.70
2023-04-16T03:24:38.675Z,10.60
2023-04-16T03:25:41.026Z,10.70
2023-04-16T03:26:42.762Z,10.70
2023-04-16T03:27:44.907Z,10.60
2023-04-16T03:28:46.733Z,10.60
2023-04-16T03:29:48.569Z,10.70
2023-04-16T03:30:52.203Z,10.60
2023-04-16T03:31:53.942Z,10.70
2023-04-16T03:32:56.028Z,10.70
2023-04-16T03:33:57.787Z,10.70
2023-04-16T03:34:59.606Z,10.70
2023-04-16T03:36:03.451Z,10.70
2023-04-16T03:37:06.341Z,10.70
2023-04-16T03:38:08.142Z,10.70
2023-04-16T03:39:10.329Z,10.60
2023-04-16T03:40:13.090Z,10.60
2023-04-16T03:41:15.002Z,10.60
2023-04-16T03:42:16.979Z,10.60
2023-04-16T03:43:18.821Z,10.60
2023-04-16T03:44:21.016Z,10.60
2023-04-16T03:45:23.139Z,10.60
2023-04-16T03:46:25.193Z,10.50
2023-04-16T03:47:29.530Z,10.50
2023-04-16T03:48:31.598Z,10.50
2023-04-16T03:49:33.319Z,10.50
2023-04-16T03:50:35.035Z,10.50
2023-04-16T03:51:37.040Z,10.50
2023-04-16T03:52:39.114Z,10.50
2023-04-16T03:53:40.994Z,10.50
2023-04-16T03:54:42.876Z,10.50
2023-04-16T03:55:44.673Z,10.50
2023-04-16T03:56:46.869Z,10.50
2023-04-16T03:57:48.600Z,10.60
2023-04-16T03:58:50.431Z,10.60
2023-04-16T03:59:52.247Z,10.50
2023-04-16T04:00:55.554Z,10.50
2023-04-16T04:01:57.758Z,10.50
2023-04-16T04:02:59.741Z,10.60
2023-04-16T04:04:02.242Z,10.50
2023-04-16T04:05:04.471Z,10.50
2023-04-16T04:06:10.115Z,10.50
2023-04-16T04:07:11.947Z,10.50
2023-04-16T04:08:15.464Z,10.40
2023-04-16T04:09:19.518Z,10.50
2023-04-16T04:10:22.031Z,10.40
2023-04-16T04:11:23.865Z,10.40
2023-04-16T04:12:25.894Z,10.50
2023-04-16T04:13:27.676Z,10.40
2023-04-16T04:14:29.434Z,10.40
2023-04-16T04:15:31.840Z,10.30
2023-04-16T04:16:33.884Z,10.40
2023-04-16T04:17:40.526Z,10.40
2023-04-16T04:18:44.460Z,10.40
2023-04-16T04:20:00.140Z,10.30
2023-04-16T04:21:07.214Z,10.30
2023-04-16T04:22:08.994Z,10.30
2023-04-16T04:23:11.044Z,10.30
2023-04-16T04:24:12.845Z,10.30
2023-04-16T04:25:14.770Z,10.40
2023-04-16T04:26:16.798Z,10.30
2023-04-16T04:27:18.597Z,10.30
2023-04-16T04:28:20.417Z,10.40
2023-04-16T04:29:22.305Z,10.30
2023-04-16T04:30:24.290Z,10.40
2023-04-16T04:31:26.079Z,10.40
2023-04-16T04:32:27.946Z,10.40
2023-04-16T04:33:29.710Z,10.40
2023-04-16T04:34:31.497Z,10.40
2023-04-16T04:35:33.749Z,10.40
2023-04-16T04:36:35.462Z,10.40
2023-04-16T04:37:37.192Z,10.50
2023-04-16T04:38:39.174Z,10.50
2023-04-16T04:39:41.094Z,10.50
2023-04-16T04:40:42.872Z,10.50
2023-04-16T04:41:44.854Z,10.60
2023-04-16T04:42:46.791Z,10.50
2023-04-16T04:43:49.924Z,10.50
2023-04-16T04:44:51.970Z,10.50
2023-04-16T04:45:53.784Z,10.60
2023-04-16T04:46:55.876Z,10.50
2023-04-16T04:47:57.760Z,10.60
2023-04-16T04:48:59.590Z,10.60
2023-04-16T04:50:01.647Z,10.60
2023-04-16T04:51:05.466Z,10.60
2023-04-16T04:52:08.519Z,10.60
2023-04-16T04:53:10.428Z,10.60
2023-04-16T04:54:12.565Z,10.60
2023-04-16T04:55:15.986Z,10.60
2023-04-16T04:56:17.785Z,10.60
2023-04-16T04:57:19.655Z,10.50
2023-04-16T04:58:21.446Z,10.50
2023-04-16T04:59:24.158Z,10.50
2023-04-16T05:00:26.194Z,10.50
2023-04-16T05:01:28.268Z,10.60
2023-04-16T05:02:30.778Z,10.50
2023-04-16T05:03:32.952Z,10.50
2023-04-16T05:04:35.147Z,10.50
2023-04-16T05:05:37.537Z,10.50
2023-04-16T05:06:39.327Z,10.50
2023-04-16T05:07:41.039Z,10.50
2023-04-16T05:08:42.888Z,10.50
2023-04-16T05:09:44.681Z,10.40
2023-04-16T05:10:46.459Z,10.40
2023-04-16T05:11:48.141Z,10.50
2023-04-16T05:12:51.632Z,10.50
2023-04-16T05:13:53.398Z,10.40
2023-04-16T05:14:55.140Z,10.40
2023-04-16T05:15:57.378Z,10.30
2023-04-16T05:16:59.382Z,10.30
2023-04-16T05:18:02.820Z,10.40
2023-04-16T05:19:06.105Z,10.30
2023-04-16T05:20:11.714Z,10.30
2023-04-16T05:21:14.931Z,10.30
2023-04-16T05:22:19.406Z,10.30
2023-04-16T05:23:21.221Z,10.30
2023-04-16T05:24:23.352Z,10.30
2023-04-16T05:25:25.219Z,10.30
2023-04-16T05:26:31.091Z,10.30
2023-04-16T05:27:32.816Z,10.30
2023-04-16T05:28:34.837Z,10.30
2023-04-16T05:29:39.222Z,10.30
2023-04-16T05:30:41.016Z,10.40
2023-04-16T05:31:43.151Z,10.40
2023-04-16T05:32:44.907Z,10.30
2023-04-16T05:33:46.761Z,10.30
2023-04-16T05:34:48.675Z,10.30
2023-04-16T05:35:50.529Z,10.30
2023-04-16T05:36:52.523Z,10.30
2023-04-16T05:37:54.301Z,10.20
2023-04-16T05:38:56.335Z,10.20
2023-04-16T05:39:58.126Z,10.20
2023-04-16T05:40:59.877Z,10.20
2023-04-16T05:42:01.920Z,10.20
2023-04-16T05:43:03.804Z,10.10
2023-04-16T05:44:05.876Z,10.10
2023-04-16T05:45:08.201Z,10.10
2023-04-16T05:46:09.934Z,10.10
2023-04-16T05:47:12.071Z,10.10
2023-04-16T05:48:14.355Z,10.20
2023-04-16T05:49:18.842Z,10.10
2023-04-16T05:50:20.911Z,10.20
2023-04-16T05:51:24.868Z,10.20
2023-04-16T05:52:26.709Z,10.20
2023-04-16T05:53:28.436Z,10.20
2023-04-16T05:54:30.301Z,10.20
2023-04-16T05:55:32.302Z,10.20
2023-04-16T05:56:34.055Z,10.20
2023-04-16T05:57:36.180Z,10.20
2023-04-16T05:58:38.059Z,10.20
2023-04-16T05:59:40.041Z,10.20
2023-04-16T06:00:42.137Z,10.20
2023-04-16T06:01:43.998Z,10.20
2023-04-16T06:02:48.930Z,10.20
2023-04-16T06:03:50.937Z,10.20
2023-04-16T06:04:52.706Z,10.20
2023-04-16T06:05:54.502Z,10.20
2023-04-16T06:06:56.764Z,10.20
2023-04-16T06:07:58.548Z,10.20
2023-04-16T06:09:00.699Z,10.20
2023-04-16T06:10:02.504Z,10.20
2023-04-16T06:11:04.504Z,10.30
2023-04-16T06:12:06.720Z,10.30
2023-04-16T06:13:08.447Z,10.30
2023-04-16T06:14:11.317Z,10.30
2023-04-16T06:15:13.437Z,10.30
2023-04-16T06:17:30.798Z,10.30
2023-04-16T06:18:32.464Z,10.30
2023-04-16T06:19:34.190Z,10.30
2023-04-16T06:20:36.209Z,10.30
2023-04-16T06:21:38.564Z,10.30
2023-04-16T06:22:40.354Z,10.30
2023-04-16T06:23:42.026Z,10.30
2023-04-16T06:24:43.736Z,10.30
2023-04-16T06:25:45.508Z,10.30
2023-04-16T06:26:47.189Z,10.30
2023-04-16T06:27:49.100Z,10.30
2023-04-16T06:28:51.031Z,10.30
2023-04-16T06:29:52.841Z,10.30
2023-04-16T06:30:54.664Z,10.40
2023-04-16T06:31:56.424Z,10.40
2023-04-16T06:32:58.613Z,10.30
2023-04-16T06:34:00.555Z,10.30
2023-04-16T06:35:02.336Z,10.30
2023-04-16T06:36:04.217Z,10.40
2023-04-16T06:37:07.198Z,10.30
2023-04-16T06:38:11.266Z,10.30
2023-04-16T06:39:12.979Z,10.30
2023-04-16T06:40:14.794Z,10.30
2023-04-16T06:41:16.755Z,10.30
2023-04-16T06:42:18.475Z,10.30
2023-04-16T06:43:20.470Z,10.30
2023-04-16T06:44:22.177Z,10.30
2023-04-16T06:45:23.830Z,10.30
2023-04-16T06:46:26.008Z,10.30
2023-04-16T06:47:28.100Z,10.40
2023-04-16T06:48:30.041Z,10.40
2023-04-16T06:49:31.710Z,10.40
2023-04-16T06:50:33.487Z,10.40
2023-04-16T06:51:35.136Z,10.40
2023-04-16T06:52:37.039Z,10.40
2023-04-16T06:53:38.958Z,10.40
2023-04-16T06:54:40.804Z,10.40
2023-04-16T06:55:42.496Z,10.40
2023-04-16T06:56:44.350Z,10.40
2023-04-16T06:57:46.111Z,10.40
2023-04-16T06:58:47.947Z,10.40
2023-04-16T06:59:49.657Z,10.40
2023-04-16T07:00:51.635Z,10.50
2023-04-16T07:01:56.492Z,10.40
2023-04-16T07:03:00.227Z,10.40
2023-04-16T07:04:02.662Z,10.40
2023-04-16T07:05:05.161Z,10.40
2023-04-16T07:06:07.044Z,10.50
2023-04-16T07:07:09.041Z,10.50
2023-04-16T07:08:10.854Z,10.40
2023-04-16T07:09:12.574Z,10.40
2023-04-16T07:10:14.321Z,10.40
2023-04-16T07:11:16.399Z,10.40
2023-04-16T07:12:18.480Z,10.40
2023-04-16T07:13:21.668Z,10.40
2023-04-16T07:14:23.477Z,10.40
2023-04-16T07:15:25.333Z,10.40
2023-04-16T07:16:40.874Z,10.40
2023-04-16T07:17:43.638Z,10.50
2023-04-16T07:18:45.563Z,10.40
2023-04-16T07:19:47.283Z,10.50
2023-04-16T07:20:49.119Z,10.40
2023-04-16T07:21:50.840Z,10.40
2023-04-16T07:22:52.550Z,10.50
2023-04-16T07:23:54.294Z,10.50
2023-04-16T07:24:56.511Z,10.50
2023-04-16T07:25:58.485Z,10.50
2023-04-16T07:27:00.584Z,10.50
2023-04-16T07:28:03.380Z,10.50
2023-04-16T07:29:05.561Z,10.60
2023-04-16T07:30:08.154Z,10.60
2023-04-16T07:31:09.874Z,10.60
2023-04-16T07:32:15.148Z,10.60
2023-04-16T07:33:17.238Z,10.60
2023-04-16T07:34:18.967Z,10.60
2023-04-16T07:35:20.955Z,10.60
2023-04-16T07:36:22.613Z,10.60
2023-04-16T07:37:24.473Z,10.70
2023-04-16T07:38:26.438Z,10.60
2023-04-16T07:39:28.418Z,10.60
2023-04-16T07:40:30.182Z,10.60
2023-04-16T07:41:31.948Z,10.60
2023-04-16T07:42:34.029Z,10.60
2023-04-16T07:43:35.988Z,10.60
2023-04-16T07:44:37.853Z,10.60
2023-04-16T07:45:40.951Z,10.60
2023-04-16T07:46:47.259Z,10.60
2023-04-16T07:47:49.685Z,10.60
2023-04-16T07:48:51.461Z,10.60
2023-04-16T07:49:53.900Z,10.60
2023-04-16T07:50:55.985Z,10.60
2023-04-16T07:51:57.967Z,10.60
2023-04-16T07:52:59.982Z,10.60
2023-04-16T07:54:01.822Z,10.60
2023-04-16T07:55:03.931Z,10.60
2023-04-16T07:56:06.054Z,10.70
2023-04-16T07:57:07.910Z,10.70
2023-04-16T07:58:09.806Z,10.70
2023-04-16T07:59:21.922Z,10.70
2023-04-16T08:00:24.931Z,10.70
2023-04-16T08:01:27.019Z,10.70
2023-04-16T08:02:29.000Z,10.70
2023-04-16T08:03:32.193Z,10.70
2023-04-16T08:04:34.396Z,10.70
2023-04-16T08:05:36.528Z,10.70
2023-04-16T08:06:38.386Z,10.70
2023-04-16T08:07:40.529Z,10.70
2023-04-16T08:08:42.364Z,10.70
2023-04-16T08:09:53.876Z,10.80
2023-04-16T08:10:56.122Z,10.80
2023-04-16T08:11:57.946Z,10.80
2023-04-16T08:13:01.959Z,10.80
2023-04-16T08:14:04.198Z,10.70
2023-04-16T08:15:06.894Z,10.70
2023-04-16T08:16:08.675Z,10.70
2023-04-16T08:17:11.946Z,10.70
2023-04-16T08:18:15.968Z,10.70
2023-04-16T08:19:17.865Z,10.70
2023-04-16T08:20:19.793Z,10.70
2023-04-16T08:21:22.082Z,10.70
2023-04-16T08:22:23.965Z,10.80
2023-04-16T08:23:25.706Z,10.80
2023-04-16T08:24:27.388Z,10.80
2023-04-16T08:25:29.184Z,10.80
2023-04-16T08:26:31.268Z,10.80
2023-04-16T08:27:32.989Z,10.80
2023-04-16T08:28:34.828Z,10.80
2023-04-16T08:29:36.641Z,10.80
2023-04-16T08:30:38.389Z,10.80
2023-04-16T08:31:42.203Z,10.80
2023-04-16T08:32:44.109Z,10.80
2023-04-16T08:33:46.045Z,10.80
2023-04-16T08:34:50.211Z,10.80
2023-04-16T08:35:51.969Z,10.90
2023-04-16T08:36:53.652Z,10.90
2023-04-16T08:37:55.672Z,10.90
2023-04-16T08:38:57.413Z,10.90
2023-04-16T08:39:59.132Z,10.80
2023-04-16T08:41:05.771Z,10.80
2023-04-16T08:42:14.325Z,10.80
2023-04-16T08:43:18.213Z,10.80
2023-04-16T08:44:23.152Z,10.80
2023-04-16T08:45:27.155Z,10.80
2023-04-16T08:46:31.681Z,10.80
2023-04-16T08:47:36.023Z,10.80
2023-04-16T08:48:38.753Z,10.80
2023-04-16T08:49:46.254Z,10.80
2023-04-16T08:50:52.309Z,10.90
2023-04-16T08:51:56.162Z,10.90
2023-04-16T08:53:08.319Z,10.90
2023-04-16T08:54:15.043Z,10.90
2023-04-16T08:55:18.768Z,10.90
2023-04-16T08:56:23.055Z,10.90
2023-04-16T08:57:30.586Z,10.90
2023-04-16T08:58:34.743Z,10.90
2023-04-16T08:59:38.191Z,10.90
2023-04-16T09:00:41.354Z,10.90
2023-04-16T09:01:43.576Z,10.90
2023-04-16T09:02:45.776Z,11.00
2023-04-16T09:03:49.095Z,10.90
2023-04-16T09:04:52.117Z,11.00
2023-04-16T09:05:58.219Z,11.00
2023-04-16T09:07:00.423Z,11.00
2023-04-16T09:08:02.199Z,11.10
2023-04-16T09:09:06.277Z,11.00
2023-04-16T09:10:08.978Z,11.00
2023-04-16T09:11:12.218Z,11.10
2023-04-16T09:12:14.274Z,11.10
2023-04-16T09:13:18.003Z,11.10
2023-04-16T09:14:20.520Z,11.20
2023-04-16T09:15:22.649Z,11.20
2023-04-16T09:16:25.533Z,11.20
2023-04-16T09:17:31.489Z,11.20
2023-04-16T09:18:34.857Z,11.20
2023-04-16T09:19:36.526Z,11.20
2023-04-16T09:20:39.208Z,11.20
2023-04-16T09:21:42.547Z,11.20
2023-04-16T09:22:44.764Z,11.30
2023-04-16T09:23:47.646Z,11.50
2023-04-16T09:24:49.461Z,11.30
2023-04-16T09:25:51.863Z,11.30
2023-04-16T09:26:55.013Z,11.30
2023-04-16T09:27:57.074Z,11.30
2023-04-16T09:28:58.919Z,11.30
2023-04-16T09:30:00.999Z,11.30
2023-04-16T09:31:14.242Z,11.30
2023-04-16T09:32:16.167Z,11.30
2023-04-16T09:33:25.111Z,11.30
2023-04-16T09:34:27.130Z,11.30
2023-04-16T09:35:53.961Z,11.40
2023-04-16T09:36:56.689Z,11.40
2023-04-16T09:37:58.521Z,11.40
2023-04-16T09:39:01.050Z,11.40
2023-04-16T09:40:04.939Z,11.40
2023-04-16T09:41:08.326Z,11.40
2023-04-16T09:42:10.957Z,11.40
2023-04-16T09:43:18.218Z,11.40
2023-04-16T09:44:20.298Z,11.40
2023-04-16T09:45:22.219Z,11.40
2023-04-16T09:46:44.216Z,11.40
2023-04-16T09:47:46.809Z,11.60
2023-04-16T09:48:48.556Z,11.40
2023-04-16T09:49:50.770Z,11.30
2023-04-16T09:50:52.566Z,11.30
2023-04-16T09:51:56.434Z,11.30
2023-04-16T09:53:02.892Z,11.30
2023-04-16T09:54:08.396Z,11.30
2023-04-16T09:55:10.213Z,11.30
2023-04-16T09:56:12.743Z,11.30
2023-04-16T09:57:18.050Z,11.40
2023-04-16T09:58:20.609Z,11.40
2023-04-16T09:59:23.918Z,11.40
2023-04-16T10:00:25.898Z,11.40
2023-04-16T10:01:27.672Z,11.40
2023-04-16T10:02:30.506Z,11.40
2023-04-16T10:03:37.418Z,11.40
2023-04-16T10:04:49.744Z,11.40
2023-04-16T10:05:53.773Z,11.30
2023-04-16T10:07:06.071Z,11.30
2023-04-16T10:08:14.187Z,11.30
2023-04-16T10:09:16.133Z,11.30
2023-04-16T10:10:18.421Z,11.30
2023-04-16T10:11:21.402Z,11.30
2023-04-16T10:12:23.198Z,11.20
2023-04-16T10:13:28.122Z,11.20
2023-04-16T10:14:30.228Z,11.20
2023-04-16T10:15:32.323Z,11.20
2023-04-16T10:16:34.763Z,11.20
2023-04-16T10:17:39.125Z,11.20
2023-04-16T10:18:45.567Z,11.30
2023-04-16T10:19:47.679Z,11.30
2023-04-16T10:20:50.760Z,11.30
2023-04-16T10:21:53.179Z,11.30
2023-04-16T10:22:55.674Z,11.30
2023-04-16T10:23:57.406Z,11.30
2023-04-16T10:25:00.035Z,11.40
2023-04-16T10:26:02.493Z,11.40
2023-04-16T10:27:04.304Z,11.40
2023-04-16T10:28:07.036Z,11.40
2023-04-16T10:29:09.362Z,11.50
2023-04-16T10:30:13.175Z,11.50
2023-04-16T10:31:15.132Z,11.50
2023-04-16T10:32:18.340Z,11.50
2023-04-16T10:33:22.010Z,11.50
2023-04-16T10:34:25.263Z,11.50
2023-04-16T10:35:27.045Z,11.50
2023-04-16T10:36:28.837Z,11.50
2023-04-16T10:37:31.461Z,11.50
2023-04-16T10:38:33.388Z,11.50
2023-04-16T10:39:37.573Z,11.60
2023-04-16T10:40:44.850Z,11.60
2023-04-16T10:41:47.020Z,11.60
2023-04-16T10:42:55.502Z,11.70
2023-04-16T10:44:10.692Z,11.70
2023-04-16T10:45:12.449Z,11.80
2023-04-16T10:46:49.878Z,11.80
2023-04-16T10:47:51.631Z,11.80
2023-04-16T10:48:55.173Z,11.90
2023-04-16T10:49:58.381Z,11.80
2023-04-16T10:51:01.790Z,11.80
2023-04-16T10:52:14.944Z,11.80
2023-04-16T10:53:22.576Z,11.80
2023-04-16T10:54:29.758Z,11.80
2023-04-16T10:55:31.490Z,11.70
2023-04-16T10:56:33.907Z,11.70
2023-04-16T10:57:35.853Z,11.60
2023-04-16T10:58:37.625Z,11.60
2023-04-16T10:59:43.195Z,11.60
2023-04-16T11:00:51.511Z,11.50
2023-04-16T11:01:55.718Z,11.60
2023-04-16T11:02:57.584Z,11.50
2023-04-16T11:04:02.096Z,11.60
2023-04-16T11:05:04.290Z,11.50
2023-04-16T11:06:17.629Z,11.50
2023-04-16T11:07:31.335Z,11.50
2023-04-16T11:08:34.987Z,11.50
2023-04-16T11:09:51.393Z,11.60
2023-04-16T11:10:53.640Z,11.60
2023-04-16T11:11:55.677Z,11.60
2023-04-16T11:12:57.561Z,11.60
2023-04-16T11:14:05.057Z,11.70
2023-04-16T11:15:09.160Z,11.70
2023-04-16T11:16:11.497Z,11.70
2023-04-16T11:17:14.824Z,11.70
2023-04-16T11:18:20.539Z,11.70
2023-04-16T11:19:22.233Z,11.70
2023-04-16T11:20:26.400Z,11.70
2023-04-16T11:21:28.707Z,11.70
2023-04-16T11:22:30.753Z,11.70
2023-04-16T11:23:53.104Z,11.80
2023-04-16T11:24:56.651Z,11.70
2023-04-16T11:25:59.290Z,11.70
2023-04-16T11:27:01.746Z,11.70
2023-04-16T11:28:03.424Z,11.70
2023-04-16T11:29:15.018Z,11.70
2023-04-16T11:30:17.453Z,11.70
2023-04-16T11:31:19.581Z,11.60
2023-04-16T11:32:22.643Z,11.60
2023-04-16T11:33:25.859Z,11.60
2023-04-16T11:34:27.778Z,11.60
2023-04-16T11:35:29.724Z,11.60
2023-04-16T11:36:43.956Z,11.60
2023-04-16T11:37:46.760Z,11.60
2023-04-16T11:38:48.447Z,11.70
2023-04-16T11:39:52.289Z,11.70
2023-04-16T11:40:54.182Z,11.80
2023-04-16T11:41:56.185Z,11.80
2023-04-16T11:43:15.423Z,11.80
2023-04-16T11:44:18.805Z,11.80
2023-04-16T11:45:20.772Z,11.90
2023-04-16T11:46:27.548Z,11.90
2023-04-16T11:47:31.782Z,11.90
2023-04-16T11:48:50.706Z,11.90
2023-04-16T11:49:52.920Z,11.90
2023-04-16T11:50:58.291Z,11.90
2023-04-16T11:52:00.242Z,11.90
2023-04-16T11:53:06.446Z,11.90
2023-04-16T11:54:11.665Z,11.90
2023-04-16T11:55:14.066Z,11.90
2023-04-16T11:56:16.173Z,11.90
2023-04-16T11:57:25.888Z,11.90
2023-04-16T11:58:27.756Z,11.90
2023-04-16T11:59:29.706Z,11.90
2023-04-16T12:00:35.726Z,11.80
2023-04-16T12:01:39.357Z,11.80
2023-04-16T12:02:46.684Z,11.80
2023-04-16T12:03:50.009Z,11.80
2023-04-16T12:04:52.141Z,11.80
2023-04-16T12:05:54.107Z,11.80
2023-04-16T12:07:10.230Z,11.90
2023-04-16T12:08:12.788Z,11.90
2023-04-16T12:09:25.437Z,11.90
2023-04-16T12:10:27.764Z,11.80
2023-04-16T12:11:40.251Z,11.80
2023-04-16T12:12:41.950Z,11.80
2023-04-16T12:13:43.621Z,11.80
2023-04-16T12:14:52.070Z,11.80
2023-04-16T12:15:56.216Z,11.80
2023-04-16T12:17:20.985Z,11.80
2023-04-16T12:18:26.175Z,11.90
2023-04-16T12:19:28.903Z,11.90
2023-04-16T12:20:41.750Z,11.80
2023-04-16T12:21:48.506Z,11.80
2023-04-16T12:22:52.778Z,11.80
2023-04-16T12:23:54.955Z,11.80
2023-04-16T12:24:59.390Z,11.80
2023-04-16T12:26:10.923Z,11.80
2023-04-16T12:27:13.434Z,11.80
2023-04-16T12:28:16.804Z,11.80
2023-04-16T12:29:23.847Z,11.70
2023-04-16T12:30:26.768Z,11.70
2023-04-16T12:31:38.407Z,11.70
2023-04-16T12:32:41.893Z,11.70
2023-04-16T12:33:43.645Z,11.70
2023-04-16T12:34:51.673Z,11.70
2023-04-16T12:36:00.260Z,11.70
2023-04-16T12:37:12.449Z,11.70
2023-04-16T12:38:15.377Z,11.70
2023-04-16T12:39:17.252Z,11.70
2023-04-16T12:40:19.071Z,11.80
2023-04-16T12:41:21.035Z,11.80
2023-04-16T12:42:23.016Z,11.80
2023-04-16T12:43:25.719Z,11.80
2023-04-16T12:44:29.408Z,11.80
2023-04-16T12:45:31.407Z,11.80
2023-04-16T12:46:33.259Z,11.80
2023-04-16T12:47:35.024Z,11.80
2023-04-16T12:48:36.881Z,12.00
2023-04-16T12:49:38.684Z,11.80
2023-04-16T12:50:40.491Z,11.80
2023-04-16T12:51:42.374Z,11.80
2023-04-16T12:52:44.171Z,11.90
2023-04-16T12:53:45.925Z,11.80
2023-04-16T12:54:47.642Z,11.80
2023-04-16T12:55:49.376Z,11.80
2023-04-16T12:56:51.235Z,11.80
2023-04-16T12:57:53.087Z,11.80
2023-04-16T12:58:55.052Z,11.80
2023-04-16T12:59:57.609Z,11.80
2023-04-16T13:01:00.005Z,11.80
2023-04-16T13:02:03.158Z,11.80
2023-04-16T13:03:05.178Z,11.70
2023-04-16T13:04:07.785Z,11.60
2023-04-16T13:05:11.518Z,11.70
2023-04-16T13:06:17.112Z,11.60
2023-04-16T13:07:19.402Z,11.60
2023-04-16T13:08:21.048Z,11.60
2023-04-16T13:09:22.931Z,11.60
2023-04-16T13:10:25.150Z,11.60
2023-04-16T13:11:26.877Z,11.70
2023-04-16T13:12:28.854Z,11.70
2023-04-16T13:13:31.303Z,11.70
2023-04-16T13:14:33.029Z,11.70
2023-04-16T13:15:34.848Z,11.70
2023-04-16T13:16:38.707Z,11.70
2023-04-16T13:17:40.763Z,11.60
2023-04-16T13:18:42.869Z,11.60
2023-04-16T13:19:46.093Z,11.60
2023-04-16T13:20:47.823Z,11.60
2023-04-16T13:21:49.679Z,11.60
2023-04-16T13:22:51.344Z,11.60
2023-04-16T13:23:54.021Z,11.60
2023-04-16T13:24:55.809Z,11.60
2023-04-16T13:25:57.883Z,11.60
2023-04-16T13:26:59.805Z,11.60
2023-04-16T13:28:01.736Z,11.50
2023-04-16T13:29:04.021Z,11.60
2023-04-16T13:30:06.598Z,11.60
2023-04-16T13:31:08.788Z,11.60
2023-04-16T13:32:10.858Z,11.60
2023-04-16T13:33:12.662Z,11.60
2023-04-16T13:34:14.809Z,11.60